createdAt,value
2018-04-22T00:01:59.817Z,13.93
2018-04-22T00:04:33.411Z,15.30
2018-04-22T00:07:07.057Z,14.83
2018-04-22T00:09:40.663Z,15.10
2018-04-22T00:12:14.244Z,15.07
2018-04-22T00:14:48.928Z,15.50
2018-04-22T00:17:23.608Z,15.10
2018-04-22T00:19:57.413Z,14.87
2018-04-22T00:22:30.989Z,15.20
2018-04-22T00:25:04.682Z,15.87
2018-04-22T00:27:38.459Z,15.50
2018-04-22T00:30:12.101Z,14.93
2018-04-22T00:32:45.649Z,15.43
2018-04-22T00:35:19.308Z,15.87
2018-04-22T00:37:53.040Z,15.63
2018-04-22T00:40:26.824Z,15.20
2018-04-22T00:43:00.512Z,14.77
2018-04-22T00:45:34.232Z,16.07
2018-04-22T00:48:08.003Z,16.23
2018-04-22T00:50:43.784Z,15.33
2018-04-22T00:53:17.352Z,16.27
2018-04-22T00:55:51.091Z,16.13
2018-04-22T00:58:24.692Z,15.87
2018-04-22T01:00:58.218Z,16.00
2018-04-22T01:03:31.716Z,16.60
2018-04-22T01:06:05.241Z,16.60
2018-04-22T01:08:38.820Z,15.13
2018-04-22T01:11:12.604Z,16.23
2018-04-22T01:13:47.144Z,16.50
2018-04-22T01:16:20.686Z,15.83
2018-04-22T01:18:54.212Z,17.03
2018-04-22T01:21:27.944Z,16.60
2018-04-22T01:24:01.564Z,17.07
2018-04-22T01:26:35.180Z,18.30
2018-04-22T01:29:08.935Z,16.33
2018-04-22T01:31:42.623Z,16.83
2018-04-22T01:34:16.540Z,16.33
2018-04-22T01:36:50.140Z,17.33
2018-04-22T01:39:23.715Z,16.70
2018-04-22T01:41:57.237Z,17.87
2018-04-22T01:44:30.897Z,17.33
2018-04-22T01:47:04.404Z,17.20
2018-04-22T01:49:38.205Z,16.73
2018-04-22T01:52:11.852Z,18.73
2018-04-22T01:54:45.506Z,17.97
2018-04-22T01:57:19.319Z,17.27
2018-04-22T01:59:52.939Z,17.07
2018-04-22T02:02:26.688Z,18.50
2018-04-22T02:05:00.302Z,17.63
2018-04-22T02:07:33.939Z,17.97
2018-04-22T02:10:07.572Z,17.53
2018-04-22T02:12:41.123Z,17.37
2018-04-22T02:15:14.828Z,18.13
2018-04-22T02:17:48.517Z,17.97
2018-04-22T02:20:22.142Z,17.77
2018-04-22T02:22:55.914Z,18.47
2018-04-22T02:25:29.703Z,18.43
2018-04-22T02:28:03.523Z,18.27
2018-04-22T02:30:37.224Z,17.73
2018-04-22T02:33:10.808Z,17.60
2018-04-22T02:35:44.431Z,18.73
2018-04-22T02:38:18.099Z,17.43
2018-04-22T02:40:51.687Z,18.83
2018-04-22T02:43:25.343Z,17.90
2018-04-22T02:45:58.925Z,17.90
2018-04-22T02:48:32.715Z,18.87
2018-04-22T02:51:06.233Z,18.63
2018-04-22T02:53:39.897Z,19.47
2018-04-22T02:56:13.474Z,18.43
2018-04-22T02:58:47.087Z,19.03
2018-04-22T03:01:20.580Z,18.93
2018-04-22T03:03:54.129Z,18.40
2018-04-22T03:06:27.712Z,18.83
2018-04-22T03:09:01.236Z,18.73
2018-04-22T03:11:34.887Z,17.40
2018-04-22T03:14:08.468Z,17.97
2018-04-22T03:16:41.995Z,17.90
2018-04-22T03:19:15.551Z,18.17
2018-04-22T03:21:49.255Z,18.57
2018-04-22T03:24:22.756Z,18.23
2018-04-22T03:26:56.403Z,17.83
2018-04-22T03:29:30.103Z,18.40
2018-04-22T03:32:03.690Z,18.00
2018-04-22T03:34:37.437Z,18.37
2018-04-22T03:37:11.368Z,18.00
2018-04-22T03:39:45.117Z,18.67
2018-04-22T03:42:18.624Z,18.60
2018-04-22T03:44:52.404Z,19.03
2018-04-22T03:47:26.024Z,18.20
2018-04-22T03:49:59.575Z,17.97
2018-04-22T03:52:33.172Z,19.07
2018-04-22T03:55:06.992Z,17.87
2018-04-22T03:57:40.554Z,17.70
2018-04-22T04:00:14.299Z,19.23
2018-04-22T04:02:47.960Z,18.87
2018-04-22T04:05:21.515Z,18.50
2018-04-22T04:07:55.071Z,18.27
2018-04-22T04:10:29.119Z,18.93
2018-04-22T04:13:02.750Z,18.40
2018-04-22T04:15:36.275Z,18.23
2018-04-22T04:21:33.895Z,18.30
2018-04-22T04:27:19.369Z,18.17
2018-04-22T04:29:53.165Z,18.87
2018-04-22T04:32:26.840Z,18.90
2018-04-22T04:35:00.595Z,17.30
2018-04-22T04:37:34.140Z,18.43
2018-04-22T04:40:07.707Z,17.20
2018-04-22T04:42:41.377Z,18.07
2018-04-22T04:45:14.982Z,17.33
2018-04-22T04:47:48.576Z,17.73
2018-04-22T04:50:22.423Z,15.93
2018-04-22T04:52:56.084Z,18.10
2018-04-22T04:55:29.783Z,16.80
2018-04-22T04:58:03.384Z,18.17
2018-04-22T05:00:37.040Z,17.80
2018-04-22T05:03:10.788Z,16.77
2018-04-22T05:05:44.443Z,16.93
2018-04-22T05:08:17.967Z,17.70
2018-04-22T05:10:51.520Z,16.87
2018-04-22T05:13:25.196Z,17.03
2018-04-22T05:15:59.018Z,17.57
2018-04-22T05:18:32.801Z,17.33
2018-04-22T05:21:06.383Z,18.07
2018-04-22T05:23:40.052Z,17.03
2018-04-22T05:26:13.584Z,16.27
2018-04-22T05:28:47.378Z,16.80
2018-04-22T05:31:20.979Z,16.77
2018-04-22T05:33:54.511Z,17.20
2018-04-22T05:36:28.078Z,17.23
2018-04-22T05:39:01.842Z,16.73
2018-04-22T05:41:35.395Z,15.40
2018-04-22T05:44:09.012Z,15.47
2018-04-22T05:46:42.650Z,15.00
2018-04-22T05:49:16.217Z,15.80
2018-04-22T05:51:49.751Z,15.47
2018-04-22T05:54:23.369Z,15.50
2018-04-22T05:56:56.899Z,15.33
2018-04-22T05:59:30.672Z,14.30
2018-04-22T06:02:04.306Z,15.10
2018-04-22T06:04:37.816Z,14.83
2018-04-22T06:07:11.440Z,14.20
2018-04-22T06:09:45.058Z,14.73
2018-04-22T06:12:18.808Z,13.83
2018-04-22T06:14:52.362Z,13.97
2018-04-22T06:17:26.066Z,13.57
2018-04-22T06:19:59.705Z,13.23
2018-04-22T06:22:33.203Z,13.53
2018-04-22T06:25:06.973Z,13.07
2018-04-22T06:27:40.570Z,12.67
2018-04-22T06:30:14.139Z,13.10
2018-04-22T06:32:47.939Z,12.97
2018-04-22T06:35:21.652Z,12.70
2018-04-22T06:37:55.461Z,12.03
2018-04-22T06:40:29.146Z,12.20
2018-04-22T06:43:02.908Z,12.47
2018-04-22T06:45:36.601Z,11.63
2018-04-22T06:48:10.332Z,10.67
2018-04-22T06:50:43.923Z,10.47
2018-04-22T06:53:17.613Z,10.70
2018-04-22T06:55:51.170Z,10.93
2018-04-22T06:58:24.752Z,11.33
2018-04-22T07:00:58.513Z,11.03
2018-04-22T07:03:32.166Z,10.20
2018-04-22T07:06:05.660Z,10.87
2018-04-22T07:08:39.355Z,9.87
2018-04-22T07:11:13.260Z,10.30
2018-04-22T07:13:46.792Z,9.57
2018-04-22T07:16:20.371Z,9.67
2018-04-22T07:18:54.044Z,9.53
2018-04-22T07:21:27.836Z,10.00
2018-04-22T07:24:01.383Z,10.27
2018-04-22T07:26:34.961Z,10.83
2018-04-22T07:29:08.648Z,9.77
2018-04-22T07:31:42.404Z,9.97
2018-04-22T07:34:15.924Z,9.60
2018-04-22T07:36:49.733Z,10.57
2018-04-22T07:39:23.291Z,9.30
2018-04-22T07:41:57.072Z,8.90
2018-04-22T07:44:30.716Z,9.57
2018-04-22T07:47:04.512Z,9.10
2018-04-22T07:49:38.126Z,8.63
2018-04-22T07:52:11.883Z,8.47
2018-04-22T07:54:45.417Z,8.17
2018-04-22T07:57:19.236Z,8.77
2018-04-22T07:59:52.952Z,9.33
2018-04-22T08:02:26.565Z,8.63
2018-04-22T08:05:00.313Z,8.23
2018-04-22T08:07:34.058Z,8.03
2018-04-22T08:10:07.725Z,8.23
2018-04-22T08:12:41.468Z,9.50
2018-04-22T08:15:15.257Z,8.60
2018-04-22T08:17:48.915Z,8.37
2018-04-22T08:20:22.748Z,8.10
2018-04-22T08:22:56.376Z,8.80
2018-04-22T08:25:30.041Z,8.17
2018-04-22T08:28:03.656Z,8.57
2018-04-22T08:30:37.255Z,8.17
2018-04-22T08:33:10.972Z,8.43
2018-04-22T08:35:44.644Z,8.33
2018-04-22T08:38:18.290Z,8.13
2018-04-22T08:40:52.076Z,7.93
2018-04-22T08:43:25.721Z,7.53
2018-04-22T08:45:59.312Z,8.33
2018-04-22T08:48:32.819Z,8.20
2018-04-22T08:51:06.655Z,7.23
2018-04-22T08:53:40.399Z,7.37
2018-04-22T08:56:13.908Z,7.30
2018-04-22T08:58:47.496Z,7.97
2018-04-22T09:01:21.394Z,7.53
2018-04-22T09:03:55.056Z,7.37
2018-04-22T09:06:28.636Z,7.27
2018-04-22T09:09:02.400Z,7.30
2018-04-22T09:11:35.935Z,7.20
2018-04-22T09:14:09.667Z,7.10
2018-04-22T09:16:43.595Z,6.53
2018-04-22T09:19:17.224Z,6.67
2018-04-22T09:21:50.868Z,7.03
2018-04-22T09:24:24.521Z,6.40
2018-04-22T09:26:58.183Z,6.70
2018-04-22T09:29:31.916Z,7.17
2018-04-22T09:32:05.507Z,5.77
2018-04-22T09:34:39.028Z,6.97
2018-04-22T09:37:12.792Z,6.67
2018-04-22T09:39:46.392Z,5.97
2018-04-22T09:42:20.091Z,5.80
2018-04-22T09:44:53.818Z,5.40
2018-04-22T09:47:27.340Z,7.00
2018-04-22T09:50:00.864Z,6.87
2018-04-22T09:52:34.547Z,6.43
2018-04-22T09:55:08.185Z,7.33
2018-04-22T09:57:41.788Z,7.70
2018-04-22T10:00:20.883Z,6.97
2018-04-22T10:02:55.463Z,7.27
2018-04-22T10:05:34.956Z,7.90
2018-04-22T10:08:08.491Z,6.80
2018-04-22T10:10:42.128Z,6.53
2018-04-22T10:13:15.900Z,6.93
2018-04-22T10:15:49.484Z,6.43
2018-04-22T10:18:23.270Z,6.07
2018-04-22T10:20:56.784Z,5.90
2018-04-22T10:23:30.596Z,5.60
2018-04-22T10:26:04.211Z,6.23
2018-04-22T10:28:37.994Z,6.33
2018-04-22T10:31:11.760Z,5.57
2018-04-22T10:33:45.348Z,7.20
2018-04-22T10:36:18.959Z,6.87
2018-04-22T10:38:52.648Z,6.83
2018-04-22T10:41:26.248Z,6.77
2018-04-22T10:43:59.865Z,6.00
2018-04-22T10:46:33.385Z,5.00
2018-04-22T10:49:07.172Z,5.37
2018-04-22T10:51:40.832Z,6.80
2018-04-22T10:54:14.583Z,6.67
2018-04-22T10:56:48.383Z,6.33
2018-04-22T10:59:22.144Z,6.97
2018-04-22T11:01:56.124Z,6.60
2018-04-22T11:04:29.647Z,6.20
2018-04-22T11:07:03.255Z,6.10
2018-04-22T11:09:36.889Z,5.50
2018-04-22T11:12:10.555Z,6.67
2018-04-22T11:14:44.191Z,6.07
2018-04-22T11:17:17.728Z,6.97
2018-04-22T11:19:51.219Z,6.20
2018-04-22T11:22:24.763Z,7.23
2018-04-22T11:24:58.360Z,6.33
2018-04-22T11:27:31.975Z,7.70
2018-04-22T11:30:05.690Z,5.60
2018-04-22T11:32:40.048Z,5.80
2018-04-22T11:35:13.583Z,6.47
2018-04-22T11:37:47.236Z,5.70
2018-04-22T11:40:21.050Z,6.50
2018-04-22T11:42:54.631Z,5.50
2018-04-22T11:45:28.284Z,5.80
2018-04-22T11:48:01.808Z,6.70
2018-04-22T11:50:35.334Z,6.60
2018-04-22T11:53:09.008Z,6.83
2018-04-22T11:55:42.679Z,6.07
2018-04-22T11:58:16.236Z,5.63
2018-04-22T12:00:49.979Z,5.80
2018-04-22T12:03:23.510Z,5.33
2018-04-22T12:05:57.193Z,4.97
2018-04-22T12:08:30.811Z,6.33
2018-04-22T12:11:04.556Z,5.00
2018-04-22T12:13:38.091Z,5.20
2018-04-22T12:16:11.868Z,5.03
2018-04-22T12:18:45.562Z,6.03
2018-04-22T12:21:19.366Z,5.83
2018-04-22T12:23:52.956Z,5.33
2018-04-22T12:26:26.734Z,5.80
2018-04-22T12:29:00.393Z,5.63
2018-04-22T12:31:34.411Z,5.60
2018-04-22T12:34:08.218Z,7.67
2018-04-22T12:36:42.008Z,5.63
2018-04-22T12:39:15.787Z,4.97
2018-04-22T12:41:49.319Z,4.90
2018-04-22T12:44:22.904Z,5.10
2018-04-22T12:46:56.668Z,4.63
2018-04-22T12:49:30.224Z,4.53
2018-04-22T12:52:03.964Z,4.97
2018-04-22T12:57:19.151Z,4.67
2018-04-22T12:59:52.656Z,5.50
2018-04-22T13:02:26.419Z,4.50
2018-04-22T13:05:00.001Z,4.73
2018-04-22T13:07:33.623Z,4.93
2018-04-22T13:10:07.181Z,5.23
2018-04-22T13:12:41.013Z,5.30
2018-04-22T13:15:14.800Z,4.70
2018-04-22T13:17:48.518Z,5.23
2018-04-22T13:20:22.059Z,4.83
2018-04-22T13:22:55.603Z,5.50
2018-04-22T13:25:29.388Z,5.83
2018-04-22T13:28:03.110Z,4.73
2018-04-22T13:30:36.900Z,4.87
2018-04-22T13:33:10.441Z,10.03
2018-04-22T13:35:44.170Z,14.30
2018-04-22T13:38:17.780Z,17.93
2018-04-22T13:40:51.331Z,24.63
2018-04-22T13:43:25.120Z,27.73
2018-04-22T13:45:58.860Z,25.73
2018-04-22T13:48:32.527Z,25.67
2018-04-22T13:51:06.229Z,29.33
2018-04-22T13:53:39.972Z,18.30
2018-04-22T13:56:13.763Z,15.27
2018-04-22T13:58:47.380Z,17.13
2018-04-22T14:01:21.019Z,15.73
2018-04-22T14:03:54.814Z,16.53
2018-04-22T14:06:28.519Z,17.63
2018-04-22T14:09:02.280Z,18.27
2018-04-22T14:11:35.956Z,21.40
2018-04-22T14:14:09.552Z,26.60
2018-04-22T14:16:43.067Z,24.67
2018-04-22T14:19:16.556Z,28.50
2018-04-22T14:21:50.087Z,25.03
2018-04-22T14:24:23.653Z,17.60
2018-04-22T14:26:57.202Z,16.20
2018-04-22T14:29:30.888Z,13.67
2018-04-22T14:32:04.812Z,13.30
2018-04-22T14:34:38.604Z,16.53
2018-04-22T14:43:11.188Z,13.43
2018-04-22T14:45:56.852Z,12.23
2018-04-22T14:48:30.473Z,11.33
2018-04-22T14:51:04.012Z,8.27
2018-04-22T14:53:37.552Z,8.87
2018-04-22T14:56:11.332Z,8.30
2018-04-22T14:58:45.128Z,8.60
2018-04-22T15:01:18.824Z,8.90
2018-04-22T15:03:52.536Z,9.90
2018-04-22T15:06:26.040Z,9.57
2018-04-22T15:08:59.566Z,9.17
2018-04-22T15:11:33.376Z,9.13
2018-04-22T15:14:06.985Z,7.40
2018-04-22T15:16:40.764Z,9.37
2018-04-22T15:19:14.356Z,8.77
2018-04-22T15:21:48.046Z,7.23
2018-04-22T15:24:21.588Z,8.90
2018-04-22T15:26:55.351Z,8.13
2018-04-22T15:29:28.851Z,7.80
2018-04-22T15:32:02.551Z,7.70
2018-04-22T15:34:36.231Z,7.67
2018-04-22T15:37:09.760Z,6.50
2018-04-22T15:39:43.536Z,6.63
2018-04-22T15:42:17.103Z,6.93
2018-04-22T15:44:50.748Z,6.73
2018-04-22T15:47:24.296Z,6.33
2018-04-22T15:49:57.991Z,7.40
2018-04-22T15:52:31.560Z,6.90
2018-04-22T15:55:05.200Z,6.60
2018-04-22T15:57:38.708Z,7.47
2018-04-22T16:00:12.488Z,7.40
2018-04-22T16:02:46.046Z,14.27
2018-04-22T16:05:19.724Z,5.50
2018-04-22T16:07:53.404Z,5.57
2018-04-22T16:10:27.135Z,8.53
2018-04-22T16:13:00.760Z,5.87
2018-04-22T16:15:34.302Z,5.10
2018-04-22T16:18:08.104Z,6.20
2018-04-22T16:20:41.711Z,10.73
2018-04-22T16:23:15.396Z,6.53
2018-04-22T16:25:49.203Z,5.77
2018-04-22T16:28:22.880Z,5.20
2018-04-22T16:30:56.442Z,6.10
2018-04-22T16:33:30.131Z,5.90
2018-04-22T16:36:03.655Z,5.83
2018-04-22T16:38:37.288Z,5.60
2018-04-22T16:41:10.821Z,5.23
2018-04-22T16:43:44.571Z,5.63
2018-04-22T16:46:18.308Z,5.33
2018-04-22T16:48:52.065Z,5.80
2018-04-22T16:51:25.688Z,5.53
2018-04-22T16:53:59.327Z,5.70
2018-04-22T16:56:32.837Z,5.60
2018-04-22T16:59:06.384Z,5.43
2018-04-22T17:01:40.053Z,5.20
2018-04-22T17:04:13.805Z,4.83
2018-04-22T17:06:47.368Z,5.03
2018-04-22T17:09:21.195Z,4.90
2018-04-22T17:11:54.832Z,4.57
2018-04-22T17:14:28.650Z,4.40
2018-04-22T17:17:02.273Z,4.93
2018-04-22T17:19:35.815Z,5.00
2018-04-22T17:22:09.456Z,4.57
2018-04-22T17:24:43.232Z,4.60
2018-04-22T17:27:16.895Z,4.23
2018-04-22T17:29:50.715Z,4.93
2018-04-22T17:32:24.364Z,4.97
2018-04-22T17:34:58.327Z,5.43
2018-04-22T17:37:31.971Z,5.23
2018-04-22T17:40:05.561Z,5.07
2018-04-22T17:42:39.102Z,5.10
2018-04-22T17:45:12.938Z,5.37
2018-04-22T17:47:46.629Z,4.40
2018-04-22T17:50:20.376Z,5.47
2018-04-22T17:52:53.918Z,5.23
2018-04-22T17:55:27.668Z,4.77
2018-04-22T17:58:01.251Z,4.40
2018-04-22T18:00:34.923Z,4.93
2018-04-22T18:03:08.667Z,5.27
2018-04-22T18:05:42.371Z,5.43
2018-04-22T18:08:15.914Z,5.07
2018-04-22T18:10:49.499Z,5.03
2018-04-22T18:13:23.131Z,5.30
2018-04-22T18:15:56.859Z,5.60
2018-04-22T18:18:30.536Z,5.30
2018-04-22T18:21:04.276Z,5.53
2018-04-22T18:23:37.956Z,6.33
2018-04-22T18:26:11.773Z,6.37
2018-04-22T18:28:45.319Z,6.77
2018-04-22T18:31:18.956Z,7.10
2018-04-22T18:33:52.677Z,5.83
2018-04-22T18:36:26.287Z,5.67
2018-04-22T18:38:59.799Z,7.20
2018-04-22T18:41:33.315Z,6.20
2018-04-22T18:44:07.060Z,6.73
2018-04-22T18:46:40.684Z,6.43
2018-04-22T18:49:14.352Z,6.20
2018-04-22T18:51:47.972Z,6.93
2018-04-22T18:54:21.596Z,5.37
2018-04-22T18:56:55.205Z,6.17
2018-04-22T18:59:29.032Z,6.57
2018-04-22T19:02:02.565Z,5.53
2018-04-22T19:04:36.196Z,6.90
2018-04-22T19:10:08.555Z,5.83
2018-04-22T19:12:42.172Z,5.97
2018-04-22T19:15:15.723Z,6.10
2018-04-22T19:17:49.284Z,6.20
2018-04-22T19:20:23.042Z,5.83
2018-04-22T19:22:56.688Z,7.10
2018-04-22T19:25:30.309Z,7.13
2018-04-22T19:28:03.860Z,6.30
2018-04-22T19:30:37.639Z,6.37
2018-04-22T19:33:11.296Z,6.17
2018-04-22T19:35:45.048Z,5.93
2018-04-22T19:38:18.884Z,5.47
2018-04-22T19:40:52.664Z,5.97
2018-04-22T19:43:26.241Z,6.20
2018-04-22T19:46:00.084Z,6.27
2018-04-22T19:48:33.792Z,7.13
2018-04-22T19:51:07.353Z,10.00
2018-04-22T19:53:40.933Z,9.10
2018-04-22T19:56:14.556Z,7.50
2018-04-22T19:58:48.212Z,9.67
2018-04-22T20:01:21.972Z,7.77
2018-04-22T20:03:55.642Z,7.37
2018-04-22T20:06:29.312Z,7.10
2018-04-22T20:09:03.072Z,7.37
2018-04-22T20:11:36.741Z,7.77
2018-04-22T20:14:10.332Z,7.27
2018-04-22T20:16:44.231Z,7.17
2018-04-22T20:19:17.878Z,6.40
2018-04-22T20:21:51.489Z,7.80
2018-04-22T20:24:25.245Z,7.60
2018-04-22T20:26:58.970Z,7.60
2018-04-22T20:29:32.529Z,7.53
2018-04-22T20:32:06.433Z,8.20
2018-04-22T20:34:40.039Z,7.13
2018-04-22T20:37:13.660Z,7.57
2018-04-22T20:39:47.411Z,8.60
2018-04-22T20:42:21.084Z,7.37
2018-04-22T20:44:54.716Z,8.00
2018-04-22T20:47:28.421Z,8.33
2018-04-22T20:50:01.966Z,8.23
2018-04-22T20:52:35.512Z,8.90
2018-04-22T20:55:09.419Z,8.87
2018-04-22T20:57:43.142Z,8.20
2018-04-22T21:00:16.843Z,8.03
2018-04-22T21:02:50.500Z,9.23
2018-04-22T21:05:24.962Z,9.53
2018-04-22T21:07:58.671Z,9.37
2018-04-22T21:10:32.316Z,8.93
2018-04-22T21:13:06.027Z,9.13
2018-04-22T21:15:39.689Z,8.97
2018-04-22T21:18:13.348Z,9.40
2018-04-22T21:20:47.062Z,9.30
2018-04-22T21:23:20.808Z,9.47
2018-04-22T21:25:54.593Z,8.90
2018-04-22T21:28:28.311Z,9.20
2018-04-22T21:31:02.037Z,8.13
2018-04-22T21:33:35.759Z,8.53
2018-04-22T21:36:09.377Z,8.40
2018-04-22T21:38:43.101Z,9.47
2018-04-22T21:41:16.868Z,9.33
2018-04-22T21:43:50.553Z,8.90
2018-04-22T21:46:24.261Z,9.17
2018-04-22T21:48:57.923Z,8.93
2018-04-22T21:51:31.642Z,9.03
2018-04-22T21:54:05.369Z,10.20
2018-04-22T21:56:38.949Z,9.23
2018-04-22T21:59:12.641Z,9.70
2018-04-22T22:01:46.349Z,9.50
2018-04-22T22:04:20.113Z,9.27
2018-04-22T22:06:53.747Z,10.43
2018-04-22T22:09:27.432Z,9.53
2018-04-22T22:12:01.217Z,9.53
2018-04-22T22:14:34.821Z,10.37
2018-04-22T22:17:08.567Z,9.23
2018-04-22T22:19:42.188Z,9.13
2018-04-22T22:22:15.905Z,9.60
2018-04-22T22:24:49.810Z,9.87
2018-04-22T22:27:23.457Z,10.17
2018-04-22T22:29:57.116Z,9.73
2018-04-22T22:32:30.852Z,9.73
2018-04-22T22:35:04.521Z,10.30
2018-04-22T22:37:38.256Z,10.70
2018-04-22T22:40:11.865Z,10.90
2018-04-22T22:42:45.407Z,9.97
2018-04-22T22:45:19.226Z,9.97
2018-04-22T22:47:53.098Z,10.63
2018-04-22T22:50:26.701Z,9.93
2018-04-22T22:53:00.323Z,9.33
2018-04-22T22:55:33.919Z,9.83
2018-04-22T22:58:07.645Z,9.57
2018-04-22T23:00:41.358Z,9.90
2018-04-22T23:03:14.905Z,8.87
2018-04-22T23:05:48.557Z,8.97
2018-04-22T23:08:22.360Z,9.40
2018-04-22T23:10:56.204Z,8.63
2018-04-22T23:13:29.846Z,8.83
2018-04-22T23:16:03.939Z,8.77
2018-04-22T23:18:37.679Z,8.67
2018-04-22T23:21:11.295Z,7.90
2018-04-22T23:23:45.027Z,7.73
2018-04-22T23:26:18.633Z,7.57
2018-04-22T23:28:52.356Z,7.63
2018-04-22T23:31:25.944Z,7.27
2018-04-22T23:33:59.564Z,6.90
2018-04-22T23:36:33.339Z,7.10
2018-04-22T23:39:06.900Z,6.60
2018-04-22T23:41:40.610Z,7.07
2018-04-22T23:44:14.193Z,7.20
2018-04-22T23:46:47.913Z,7.10
2018-04-22T23:49:21.473Z,7.40
2018-04-22T23:51:54.974Z,6.60
2018-04-22T23:54:28.592Z,6.70
2018-04-22T23:57:02.166Z,6.80
2018-04-22T23:59:35.816Z,6.60
